createdAt,value
2023-02-05T00:00:44.895Z,96842.53
2023-02-05T00:03:11.498Z,96843.31
2023-02-05T00:05:38.272Z,96839.91
2023-02-05T00:08:05.267Z,96839.81
2023-02-05T00:10:31.896Z,96843.22
2023-02-05T00:12:58.616Z,96840.78
2023-02-05T00:15:25.207Z,96833.19
2023-02-05T00:17:51.746Z,96822.28
2023-02-05T00:20:19.162Z,96825.00
2023-02-05T00:22:45.764Z,96815.06
2023-02-05T00:25:12.450Z,96811.84
2023-02-05T00:27:39.005Z,96801.09
2023-02-05T00:30:06.144Z,96807.94
2023-02-05T00:32:32.674Z,96805.50
2023-02-05T00:34:59.291Z,96812.31
2023-02-05T00:37:25.950Z,96805.75
2023-02-05T00:39:52.560Z,96803.28
2023-02-05T00:42:19.103Z,96805.81
2023-02-05T00:44:45.713Z,96815.94
2023-02-05T00:47:12.269Z,96817.59
2023-02-05T00:49:39.463Z,96822.88
2023-02-05T00:52:06.063Z,96825.50
2023-02-05T00:54:32.789Z,96823.94
2023-02-05T00:56:59.380Z,96821.41
2023-02-05T00:59:26.096Z,96827.25
2023-02-05T01:01:52.725Z,96833.13
2023-02-05T01:04:20.579Z,96830.72
2023-02-05T01:06:47.545Z,96831.56
2023-02-05T01:09:14.149Z,96832.44
2023-02-05T01:11:40.732Z,96827.34
2023-02-05T01:14:07.289Z,96828.22
2023-02-05T01:16:33.879Z,96820.59
2023-02-05T01:19:00.617Z,96814.78
2023-02-05T01:21:27.394Z,96821.63
2023-02-05T01:23:54.905Z,96816.66
2023-02-05T01:26:21.638Z,96809.19
2023-02-05T01:28:48.550Z,96801.66
2023-02-05T01:31:16.043Z,96798.31
2023-02-05T01:33:42.866Z,96797.59
2023-02-05T01:36:09.796Z,96800.00
2023-02-05T01:38:36.589Z,96800.91
2023-02-05T01:41:03.238Z,96805.06
2023-02-05T01:43:29.905Z,96796.63
2023-02-05T01:46:19.181Z,96803.34
2023-02-05T01:48:50.829Z,96805.16
2023-02-05T01:51:17.938Z,96804.38
2023-02-05T01:53:48.454Z,96801.97
2023-02-05T01:56:19.785Z,96800.28
2023-02-05T01:58:52.592Z,96795.09
2023-02-05T02:01:19.809Z,96806.81
2023-02-05T02:03:48.098Z,96804.38
2023-02-05T02:06:14.926Z,96806.09
2023-02-05T02:08:41.442Z,96801.81
2023-02-05T02:11:12.836Z,96799.09
2023-02-05T02:13:41.575Z,96796.59
2023-02-05T02:16:09.211Z,96788.25
2023-02-05T02:18:38.092Z,96795.03
2023-02-05T02:21:07.799Z,96799.22
2023-02-05T02:23:49.293Z,96786.59
2023-02-05T02:26:53.718Z,96782.47
2023-02-05T02:29:35.760Z,96783.16
2023-02-05T02:32:07.826Z,96780.81
2023-02-05T02:34:44.981Z,96781.72
2023-02-05T02:37:20.813Z,96779.25
2023-02-05T02:40:01.888Z,96780.94
2023-02-05T02:42:41.004Z,96780.03
2023-02-05T02:45:10.513Z,96769.09
2023-02-05T02:47:56.208Z,96764.06
2023-02-05T02:50:34.769Z,96761.59
2023-02-05T02:53:24.420Z,96764.94
2023-02-05T02:55:54.675Z,96765.06
2023-02-05T02:58:31.329Z,96768.47
2023-02-05T03:01:00.332Z,96761.78
2023-02-05T03:03:32.846Z,96758.50
2023-02-05T03:06:03.945Z,96766.91
2023-02-05T03:08:42.280Z,96760.28
2023-02-05T03:11:13.411Z,96754.56
2023-02-05T03:13:44.073Z,96753.81
2023-02-05T03:16:12.818Z,96751.34
2023-02-05T03:18:39.963Z,96738.78
2023-02-05T03:21:17.175Z,96736.31
2023-02-05T03:23:44.699Z,96742.22
2023-02-05T03:26:30.026Z,96742.13
2023-02-05T03:29:11.729Z,96730.50
2023-02-05T03:32:05.842Z,96718.84
2023-02-05T03:34:48.487Z,96722.09
2023-02-05T03:37:44.503Z,96726.41
2023-02-05T03:40:35.954Z,96723.16
2023-02-05T03:43:11.153Z,96716.38
2023-02-05T03:45:57.174Z,96712.28
2023-02-05T03:48:45.744Z,96708.97
2023-02-05T03:51:22.586Z,96713.88
2023-02-05T03:54:05.510Z,96718.19
2023-02-05T03:56:32.748Z,96725.81
2023-02-05T03:59:01.366Z,96723.34
2023-02-05T04:01:28.895Z,96726.00
2023-02-05T04:03:55.815Z,96732.75
2023-02-05T04:06:23.350Z,96721.88
2023-02-05T04:08:53.051Z,96722.78
2023-02-05T04:11:19.642Z,96719.53
2023-02-05T04:13:47.274Z,96718.69
2023-02-05T04:16:14.692Z,96717.13
2023-02-05T04:18:41.385Z,96721.34
2023-02-05T04:21:08.311Z,96717.22
2023-02-05T04:23:38.537Z,96723.97
2023-02-05T04:26:05.934Z,96718.00
2023-02-05T04:28:39.053Z,96718.00
2023-02-05T04:31:08.485Z,96709.66
2023-02-05T04:33:35.769Z,96712.25
2023-02-05T04:36:02.406Z,96705.59
2023-02-05T04:38:29.351Z,96698.75
2023-02-05T04:40:56.749Z,96699.53
2023-02-05T04:43:23.346Z,96699.56
2023-02-05T04:45:50.565Z,96692.84
2023-02-05T04:48:17.723Z,96693.69
2023-02-05T04:50:44.382Z,96687.06
2023-02-05T04:53:10.961Z,96692.16
2023-02-05T04:55:37.484Z,96693.03
2023-02-05T04:58:04.257Z,96693.91
2023-02-05T05:00:30.997Z,96694.84
2023-02-05T05:02:58.202Z,96699.00
2023-02-05T05:05:24.909Z,96697.28
2023-02-05T05:07:51.741Z,96693.91
2023-02-05T05:10:18.455Z,96693.97
2023-02-05T05:12:44.965Z,96682.25
2023-02-05T05:15:11.599Z,96687.28
2023-02-05T05:17:38.225Z,96682.28
2023-02-05T05:20:05.177Z,96686.47
2023-02-05T05:22:31.776Z,96686.56
2023-02-05T05:24:58.415Z,96689.94
2023-02-05T05:27:24.987Z,96689.91
2023-02-05T05:29:51.811Z,96686.53
2023-02-05T05:32:18.447Z,96688.09
2023-02-05T05:34:45.175Z,96682.28
2023-02-05T05:37:11.737Z,96683.97
2023-02-05T05:39:56.896Z,96678.91
2023-02-05T05:42:42.188Z,96683.09
2023-02-05T05:45:09.125Z,96690.69
2023-02-05T05:47:35.820Z,96698.28
2023-02-05T05:50:02.459Z,96695.78
2023-02-05T05:52:31.522Z,96702.44
2023-02-05T05:54:59.041Z,96694.00
2023-02-05T05:57:26.032Z,96686.47
2023-02-05T05:59:52.913Z,96680.63
2023-02-05T06:02:19.560Z,96680.66
2023-02-05T06:04:46.347Z,96688.25
2023-02-05T06:07:12.963Z,96685.81
2023-02-05T06:09:39.677Z,96686.63
2023-02-05T06:12:06.707Z,96692.53
2023-02-05T06:14:33.395Z,96692.59
2023-02-05T06:16:59.977Z,96677.53
2023-02-05T06:19:26.711Z,96690.19
2023-02-05T06:21:53.297Z,96692.69
2023-02-05T06:24:19.971Z,96692.66
2023-02-05T06:26:46.514Z,96695.19
2023-02-05T06:29:13.088Z,96704.44
2023-02-05T06:31:39.751Z,96704.44
2023-02-05T06:34:06.498Z,96709.38
2023-02-05T06:36:33.202Z,96713.59
2023-02-05T06:38:59.929Z,96716.09
2023-02-05T06:41:26.535Z,96729.56
2023-02-05T06:43:53.095Z,96724.59
2023-02-05T06:46:19.653Z,96722.97
2023-02-05T06:48:46.375Z,96722.19
2023-02-05T06:51:13.576Z,96710.44
2023-02-05T06:53:40.416Z,96722.16
2023-02-05T06:56:07.227Z,96714.63
2023-02-05T06:58:33.871Z,96721.34
2023-02-05T07:01:01.536Z,96732.16
2023-02-05T07:03:28.226Z,96728.72
2023-02-05T07:05:54.949Z,96732.03
2023-02-05T07:08:24.424Z,96725.34
2023-02-05T07:10:51.004Z,96735.44
2023-02-05T07:13:17.566Z,96742.88
2023-02-05T07:15:44.422Z,96731.09
2023-02-05T07:18:11.219Z,96729.47
2023-02-05T07:20:37.918Z,96718.53
2023-02-05T07:23:05.609Z,96715.03
2023-02-05T07:25:38.170Z,96721.63
2023-02-05T07:28:07.889Z,96712.22
2023-02-05T07:30:36.014Z,96720.41
2023-02-05T07:33:03.598Z,96707.56
2023-02-05T07:35:31.948Z,96706.44
2023-02-05T07:37:59.258Z,96712.09
2023-02-05T07:40:26.012Z,96727.06
2023-02-05T07:42:52.578Z,96737.13
2023-02-05T07:45:19.163Z,96729.53
2023-02-05T07:47:45.826Z,96730.34
2023-02-05T07:50:12.471Z,96723.34
2023-02-05T07:52:39.101Z,96731.56
2023-02-05T07:55:06.002Z,96728.81
2023-02-05T07:57:32.718Z,96726.94
2023-02-05T07:59:59.259Z,96738.56
2023-02-05T08:02:25.942Z,96730.84
2023-02-05T08:04:52.820Z,96733.19
2023-02-05T08:07:19.400Z,96730.47
2023-02-05T08:09:46.024Z,96732.75
2023-02-05T08:12:12.868Z,96739.94
2023-02-05T08:14:39.405Z,96741.09
2023-02-05T08:17:06.439Z,96745.34
2023-02-05T08:19:33.132Z,96745.41
2023-02-05T08:21:59.774Z,96742.22
2023-02-05T08:24:26.474Z,96729.31
2023-02-05T08:26:53.030Z,96725.25
2023-02-05T08:29:19.632Z,96716.63
2023-02-05T08:31:46.346Z,96708.47
2023-02-05T08:34:13.194Z,96716.31
2023-02-05T08:36:39.905Z,96717.56
2023-02-05T08:39:06.503Z,96716.19
2023-02-05T08:41:33.255Z,96712.31
2023-02-05T08:43:59.784Z,96709.28
2023-02-05T08:46:31.572Z,96698.88
2023-02-05T08:49:04.097Z,96695.66
2023-02-05T08:51:31.330Z,96698.84
2023-02-05T08:53:57.963Z,96688.94
2023-02-05T08:56:24.502Z,96672.88
2023-02-05T08:58:51.172Z,96670.16
2023-02-05T09:01:18.206Z,96669.91
2023-02-05T09:03:45.356Z,96661.28
2023-02-05T09:06:14.942Z,96668.13
2023-02-05T09:08:41.987Z,96660.63
2023-02-05T09:11:08.776Z,96657.72
2023-02-05T09:13:35.971Z,96654.16
2023-02-05T09:16:02.616Z,96646.41
2023-02-05T09:18:29.166Z,96644.75
2023-02-05T09:20:55.792Z,96650.00
2023-02-05T09:23:22.838Z,96639.91
2023-02-05T09:25:49.412Z,96646.44
2023-02-05T09:28:16.231Z,96638.34
2023-02-05T09:30:45.046Z,96644.50
2023-02-05T09:33:12.775Z,96642.84
2023-02-05T09:35:39.403Z,96644.03
2023-02-05T09:38:06.091Z,96636.94
2023-02-05T09:40:39.489Z,96635.72
2023-02-05T09:43:45.026Z,96640.28
2023-02-05T09:46:56.682Z,96620.03
2023-02-05T09:49:32.480Z,96624.00
2023-02-05T09:52:23.999Z,96628.03
2023-02-05T09:54:54.707Z,96620.25
2023-02-05T09:57:40.762Z,96611.88
2023-02-05T10:00:23.995Z,96624.19
2023-02-05T10:03:01.350Z,96609.91
2023-02-05T10:05:37.487Z,96601.31
2023-02-05T10:08:06.800Z,96600.75
2023-02-05T10:10:39.318Z,96591.38
2023-02-05T10:13:40.421Z,96580.06
2023-02-05T10:16:07.043Z,96566.28
2023-02-05T10:18:58.264Z,96573.41
2023-02-05T10:22:00.481Z,96567.53
2023-02-05T10:24:46.177Z,96555.81
2023-02-05T10:27:20.952Z,96553.19
2023-02-05T10:29:59.861Z,96550.84
2023-02-05T10:32:50.369Z,96540.75
2023-02-05T10:35:35.708Z,96542.63
2023-02-05T10:38:08.574Z,96537.72
2023-02-05T10:40:40.075Z,96536.81
2023-02-05T10:43:42.995Z,96537.16
2023-02-05T10:46:13.304Z,96526.84
2023-02-05T10:48:47.207Z,96526.75
2023-02-05T10:51:38.036Z,96521.91
2023-02-05T10:54:05.123Z,96522.66
2023-02-05T10:56:32.378Z,96513.38
2023-02-05T10:59:01.199Z,96512.13
2023-02-05T11:01:37.248Z,96507.28
2023-02-05T11:04:08.138Z,96504.81
2023-02-05T11:06:53.271Z,96507.88
2023-02-05T11:09:26.590Z,96516.38
2023-02-05T11:12:04.819Z,96511.75
2023-02-05T11:14:37.465Z,96509.66
2023-02-05T11:17:24.549Z,96506.53
2023-02-05T11:19:54.366Z,96495.50
2023-02-05T11:22:34.428Z,96504.94
2023-02-05T11:25:06.651Z,96498.94
2023-02-05T11:27:35.320Z,96500.53
2023-02-05T11:30:50.487Z,96503.44
2023-02-05T11:33:24.392Z,96495.34
2023-02-05T11:36:05.694Z,96500.53
2023-02-05T11:38:45.839Z,96492.00
2023-02-05T11:41:27.497Z,96501.16
2023-02-05T11:43:55.582Z,96504.03
2023-02-05T11:46:24.637Z,96504.03
2023-02-05T11:49:04.823Z,96507.56
2023-02-05T11:51:44.690Z,96505.16
2023-02-05T11:54:22.751Z,96501.16
2023-02-05T11:57:30.991Z,96506.91
2023-02-05T11:59:58.755Z,96506.19
2023-02-05T12:02:30.879Z,96504.78
2023-02-05T12:05:00.948Z,96508.47
2023-02-05T12:07:34.593Z,96509.22
2023-02-05T12:10:01.397Z,96505.56
2023-02-05T12:12:44.866Z,96501.63
2023-02-05T12:15:24.765Z,96504.13
2023-02-05T12:18:32.470Z,96500.19
2023-02-05T12:21:00.112Z,96501.06
2023-02-05T12:24:04.114Z,96499.69
2023-02-05T12:26:35.045Z,96497.25
2023-02-05T12:29:08.977Z,96503.06
2023-02-05T12:31:47.212Z,96497.25
2023-02-05T12:34:29.463Z,96493.50
2023-02-05T12:37:14.697Z,96494.97
2023-02-05T12:39:44.530Z,96486.84
2023-02-05T12:42:25.066Z,96485.44
2023-02-05T12:45:29.117Z,96482.91
2023-02-05T12:47:58.770Z,96486.91
2023-02-05T12:50:34.706Z,96491.81
2023-02-05T12:53:15.245Z,96486.56
2023-02-05T12:56:21.719Z,96490.00
2023-02-05T12:58:56.206Z,96490.84
2023-02-05T13:01:32.098Z,96495.53
2023-02-05T13:04:01.582Z,96492.97
2023-02-05T13:06:40.233Z,96489.72
2023-02-05T13:09:15.705Z,96491.44
2023-02-05T13:12:10.665Z,96491.19
2023-02-05T13:15:00.421Z,96489.66
2023-02-05T13:17:29.545Z,96486.25
2023-02-05T13:20:00.468Z,96479.47
2023-02-05T13:22:54.444Z,96475.69
2023-02-05T13:26:02.649Z,96474.41
2023-02-05T13:28:42.211Z,96476.31
2023-02-05T13:31:14.895Z,96472.47
2023-02-05T13:33:43.700Z,96470.06
2023-02-05T13:36:46.792Z,96463.22
2023-02-05T13:39:51.219Z,96452.44
2023-02-05T13:42:50.250Z,96450.31
2023-02-05T13:45:20.774Z,96448.00
2023-02-05T13:47:53.526Z,96437.84
2023-02-05T13:50:41.517Z,96446.34
2023-02-05T13:53:39.421Z,96432.06
2023-02-05T13:56:31.055Z,96445.09
2023-02-05T13:59:01.541Z,96434.91
2023-02-05T14:01:34.531Z,96436.47
2023-02-05T14:04:20.144Z,96434.16
2023-02-05T14:07:08.756Z,96440.78
2023-02-05T14:09:42.971Z,96438.59
2023-02-05T14:12:22.408Z,96440.28
2023-02-05T14:15:20.144Z,96431.88
2023-02-05T14:17:46.759Z,96434.00
2023-02-05T14:20:26.136Z,96427.91
2023-02-05T14:22:57.986Z,96427.06
2023-02-05T14:25:41.574Z,96423.69
2023-02-05T14:28:20.493Z,96417.97
2023-02-05T14:30:57.130Z,96414.41
2023-02-05T14:33:43.654Z,96415.06
2023-02-05T14:36:22.936Z,96404.88
2023-02-05T14:39:23.416Z,96412.72
2023-02-05T14:41:55.649Z,96408.50
2023-02-05T14:44:24.415Z,96404.78
2023-02-05T14:46:57.928Z,96400.97
2023-02-05T14:49:38.970Z,96393.09
2023-02-05T14:52:24.121Z,96403.34
2023-02-05T14:54:57.369Z,96400.63
2023-02-05T14:57:29.538Z,96395.31
2023-02-05T15:00:00.172Z,96401.09
2023-02-05T15:03:05.368Z,96404.72
2023-02-05T15:05:37.911Z,96412.13
2023-02-05T15:08:13.593Z,96402.31
2023-02-05T15:10:55.111Z,96412.91
2023-02-05T15:13:22.964Z,96407.81
2023-02-05T15:16:12.545Z,96405.34
2023-02-05T15:18:51.110Z,96412.03
2023-02-05T15:21:25.097Z,96415.59
2023-02-05T15:24:00.229Z,96417.00
2023-02-05T15:26:46.203Z,96425.69
2023-02-05T15:29:23.821Z,96424.53
2023-02-05T15:31:57.773Z,96430.72
2023-02-05T15:34:27.876Z,96432.75
2023-02-05T15:37:02.621Z,96435.38
2023-02-05T15:39:50.524Z,96437.94
2023-02-05T15:42:20.423Z,96440.38
2023-02-05T15:44:47.145Z,96444.16
2023-02-05T15:47:21.353Z,96438.47
2023-02-05T15:49:51.829Z,96448.06
2023-02-05T15:52:29.989Z,96440.50
2023-02-05T15:55:00.743Z,96441.22
2023-02-05T15:57:32.120Z,96435.28
2023-02-05T16:00:00.816Z,96429.56
2023-02-05T16:02:29.523Z,96432.41
2023-02-05T16:05:03.853Z,96432.34
2023-02-05T16:08:08.933Z,96431.44
2023-02-05T16:10:36.127Z,96442.84
2023-02-05T16:13:21.232Z,96443.53
2023-02-05T16:15:50.837Z,96447.16
2023-02-05T16:18:50.933Z,96454.03
2023-02-05T16:21:25.043Z,96455.00
2023-02-05T16:24:05.758Z,96458.63
2023-02-05T16:26:36.555Z,96453.72
2023-02-05T16:29:11.730Z,96451.91
2023-02-05T16:31:47.356Z,96452.59
2023-02-05T16:34:21.562Z,96452.50
2023-02-05T16:36:50.303Z,96460.06
2023-02-05T16:39:29.227Z,96462.19
2023-02-05T16:42:07.939Z,96456.41
2023-02-05T16:44:37.539Z,96460.47
2023-02-05T16:47:19.946Z,96463.47
2023-02-05T16:49:48.217Z,96462.41
2023-02-05T16:52:30.768Z,96457.28
2023-02-05T16:54:58.958Z,96451.53
2023-02-05T16:57:32.557Z,96457.44
2023-02-05T17:00:25.151Z,96460.81
2023-02-05T17:02:55.469Z,96461.75
2023-02-05T17:05:33.405Z,96456.63
2023-02-05T17:08:04.726Z,96462.28
2023-02-05T17:10:32.358Z,96462.34
2023-02-05T17:13:00.869Z,96466.88
2023-02-05T17:15:34.578Z,96472.59
2023-02-05T17:18:17.843Z,96463.34
2023-02-05T17:20:46.067Z,96462.75
2023-02-05T17:23:17.237Z,96460.16
2023-02-05T17:25:52.486Z,96456.19
2023-02-05T17:28:25.551Z,96458.81
2023-02-05T17:30:54.197Z,96464.88
2023-02-05T17:33:23.513Z,96459.03
2023-02-05T17:35:50.713Z,96457.34
2023-02-05T17:38:18.052Z,96456.47
2023-02-05T17:40:44.808Z,96454.72
2023-02-05T17:43:11.377Z,96448.00
2023-02-05T17:45:40.371Z,96459.00
2023-02-05T17:48:08.075Z,96454.72
2023-02-05T17:50:37.551Z,96461.53
2023-02-05T17:53:04.472Z,96464.03
2023-02-05T17:55:31.249Z,96459.81
2023-02-05T17:57:57.771Z,96459.78
2023-02-05T18:00:27.527Z,96464.81
2023-02-05T18:02:54.549Z,96458.88
2023-02-05T18:05:22.297Z,96454.53
2023-02-05T18:07:57.919Z,96463.84
2023-02-05T18:10:27.569Z,96446.34
2023-02-05T18:12:56.074Z,96451.53
2023-02-05T18:15:24.073Z,96460.00
2023-02-05T18:18:53.087Z,96469.16
2023-02-05T18:20:59.207Z,96468.06
2023-02-05T18:23:29.038Z,96469.03
2023-02-05T18:25:57.271Z,96466.56
2023-02-05T18:28:24.610Z,96461.44
2023-02-05T18:31:05.520Z,96461.94
2023-02-05T18:33:32.625Z,96472.22
2023-02-05T18:36:04.160Z,96469.59
2023-02-05T18:38:31.776Z,96467.06
2023-02-05T18:41:12.279Z,96464.47
2023-02-05T18:43:39.547Z,96455.19
2023-02-05T18:46:08.507Z,96443.44
2023-02-05T18:48:35.985Z,96444.81
2023-02-05T18:51:10.058Z,96444.94
2023-02-05T18:53:40.440Z,96457.00
2023-02-05T18:56:16.041Z,96453.66
2023-02-05T18:58:44.119Z,96454.44
2023-02-05T19:01:20.598Z,96446.75
2023-02-05T19:03:47.989Z,96460.31
2023-02-05T19:06:17.182Z,96459.53
2023-02-05T19:08:44.224Z,96468.66
2023-02-05T19:11:16.833Z,96477.94
2023-02-05T19:13:43.417Z,96481.19
2023-02-05T19:16:13.162Z,96475.47
2023-02-05T19:18:41.586Z,96481.13
2023-02-05T19:21:14.746Z,96489.53
2023-02-05T19:23:43.230Z,96495.28
2023-02-05T19:26:13.952Z,96498.81
2023-02-05T19:28:41.643Z,96503.19
2023-02-05T19:31:10.546Z,96503.91
2023-02-05T19:33:38.526Z,96499.59
2023-02-05T19:36:07.413Z,96499.59
2023-02-05T19:38:39.283Z,96495.28
2023-02-05T19:41:12.711Z,96496.28
2023-02-05T19:43:40.597Z,96497.78
2023-02-05T19:46:08.308Z,96492.69
2023-02-05T19:48:35.759Z,96497.72
2023-02-05T19:51:07.552Z,96495.28
2023-02-05T19:53:34.738Z,96487.66
2023-02-05T19:56:14.288Z,96490.38
2023-02-05T19:58:43.237Z,96481.97
2023-02-05T20:01:21.998Z,96481.91
2023-02-05T20:03:48.567Z,96482.75
2023-02-05T20:06:16.953Z,96488.81
2023-02-05T20:08:44.937Z,96487.13
2023-02-05T20:11:12.319Z,96486.28
2023-02-05T20:13:40.987Z,96491.56
2023-02-05T20:16:11.952Z,96490.00
2023-02-05T20:18:40.021Z,96495.00
2023-02-05T20:21:07.916Z,96508.56
2023-02-05T20:23:34.754Z,96512.66
2023-02-05T20:26:04.289Z,96512.50
2023-02-05T20:28:32.515Z,96520.06
2023-02-05T20:31:17.844Z,96517.41
2023-02-05T20:33:44.629Z,96526.84
2023-02-05T20:36:12.804Z,96518.38
2023-02-05T20:38:40.101Z,96522.69
2023-02-05T20:41:14.910Z,96524.94
2023-02-05T20:43:41.537Z,96526.00
2023-02-05T20:46:10.642Z,96532.72
2023-02-05T20:48:38.321Z,96531.88
2023-02-05T20:51:10.442Z,96541.94
2023-02-05T20:53:38.061Z,96542.66
2023-02-05T20:56:10.589Z,96553.66
2023-02-05T20:58:37.436Z,96556.25
2023-02-05T21:01:07.839Z,96558.75
2023-02-05T21:03:35.524Z,96567.94
2023-02-05T21:06:02.510Z,96562.16
2023-02-05T21:08:29.068Z,96568.91
2023-02-05T21:10:55.898Z,96575.56
2023-02-05T21:13:22.660Z,96574.78
2023-02-05T21:15:58.029Z,96584.88
2023-02-05T21:18:25.771Z,96584.16
2023-02-05T21:20:52.665Z,96594.25
2023-02-05T21:23:20.211Z,96606.13
2023-02-05T21:25:47.491Z,96613.84
2023-02-05T21:28:14.427Z,96621.69
2023-02-05T21:30:42.947Z,96626.69
2023-02-05T21:33:10.145Z,96631.97
2023-02-05T21:35:38.730Z,96636.19
2023-02-05T21:38:05.877Z,96642.00
2023-02-05T21:40:33.298Z,96648.13
2023-02-05T21:43:00.826Z,96637.22
2023-02-05T21:45:27.854Z,96642.63
2023-02-05T21:47:54.582Z,96639.13
2023-02-05T21:50:21.324Z,96645.97
2023-02-05T21:52:48.256Z,96660.22
2023-02-05T21:55:15.039Z,96656.97
2023-02-05T21:57:42.264Z,96655.47
2023-02-05T22:00:09.510Z,96654.53
2023-02-05T22:02:39.233Z,96652.97
2023-02-05T22:05:06.480Z,96660.47
2023-02-05T22:07:33.229Z,96659.63
2023-02-05T22:09:59.754Z,96660.41
2023-02-05T22:12:26.469Z,96658.06
2023-02-05T22:14:53.285Z,96661.56
2023-02-05T22:17:19.971Z,96664.84
2023-02-05T22:19:46.495Z,96664.78
2023-02-05T22:22:13.309Z,96659.63
2023-02-05T22:24:40.112Z,96674.00
2023-02-05T22:27:06.928Z,96670.03
2023-02-05T22:29:33.598Z,96670.25
2023-02-05T22:32:00.305Z,96676.16
2023-02-05T22:34:27.711Z,96676.88
2023-02-05T22:36:54.956Z,96679.53
2023-02-05T22:39:21.502Z,96681.97
2023-02-05T22:41:48.120Z,96686.34
2023-02-05T22:44:15.006Z,96690.66
2023-02-05T22:46:43.648Z,96691.53
2023-02-05T22:49:12.040Z,96685.38
2023-02-05T22:51:39.764Z,96686.22
2023-02-05T22:54:10.222Z,96683.63
2023-02-05T22:56:37.924Z,96687.88
2023-02-05T22:59:04.621Z,96692.34
2023-02-05T23:01:33.998Z,96693.44
2023-02-05T23:04:02.532Z,96685.91
2023-02-05T23:06:32.226Z,96682.66
2023-02-05T23:09:18.351Z,96682.72
2023-02-05T23:11:45.893Z,96675.94
2023-02-05T23:14:14.905Z,96678.66
2023-02-05T23:16:44.090Z,96681.09
2023-02-05T23:19:15.938Z,96678.56
2023-02-05T23:21:42.791Z,96682.84
2023-02-05T23:24:10.620Z,96683.69
2023-02-05T23:26:44.221Z,96679.34
2023-02-05T23:29:13.860Z,96682.59
2023-02-05T23:31:40.810Z,96678.44
2023-02-05T23:34:07.525Z,96683.75
2023-02-05T23:36:34.422Z,96695.78
2023-02-05T23:39:01.042Z,96700.38
2023-02-05T23:41:37.546Z,96697.78
2023-02-05T23:44:14.319Z,96702.19
2023-02-05T23:46:42.708Z,96705.66
2023-02-05T23:49:09.564Z,96713.97
2023-02-05T23:51:36.357Z,96717.28
2023-02-05T23:54:03.898Z,96727.50
2023-02-05T23:56:31.227Z,96726.84
2023-02-05T23:58:59.038Z,96723.47
